createdAt,value
2018-11-03T00:00:36.590Z,6.77
2018-11-03T00:01:36.584Z,6.81
2018-11-03T00:02:36.543Z,6.87
2018-11-03T00:03:36.538Z,6.85
2018-11-03T00:04:36.493Z,6.84
2018-11-03T00:05:36.495Z,6.84
2018-11-03T00:06:36.593Z,6.81
2018-11-03T00:07:36.474Z,6.81
2018-11-03T00:08:36.462Z,6.85
2018-11-03T00:09:36.452Z,6.80
2018-11-03T00:10:36.440Z,6.88
2018-11-03T00:11:36.447Z,6.92
2018-11-03T00:12:36.449Z,6.87
2018-11-03T00:13:36.402Z,6.81
2018-11-03T00:14:36.396Z,6.88
2018-11-03T00:15:36.406Z,6.98
2018-11-03T00:16:36.402Z,6.94
2018-11-03T00:17:36.357Z,6.94
2018-11-03T00:18:36.346Z,6.91
2018-11-03T00:19:36.379Z,6.88
2018-11-03T00:20:36.347Z,6.91
2018-11-03T00:21:37.135Z,6.88
2018-11-03T00:22:36.302Z,6.94
2018-11-03T00:23:36.319Z,6.97
2018-11-03T00:24:36.279Z,7.02
2018-11-03T00:25:36.293Z,7.02
2018-11-03T00:26:36.255Z,6.98
2018-11-03T00:27:36.301Z,6.88
2018-11-03T00:28:36.263Z,6.97
2018-11-03T00:29:36.234Z,7.03
2018-11-03T00:30:36.280Z,6.98
2018-11-03T00:31:36.198Z,7.07
2018-11-03T00:32:36.216Z,7.07
2018-11-03T00:33:36.216Z,6.95
2018-11-03T00:34:36.160Z,6.98
2018-11-03T00:35:36.221Z,6.99
2018-11-03T00:36:36.136Z,7.02
2018-11-03T00:37:36.160Z,7.02
2018-11-03T00:38:36.123Z,7.10
2018-11-03T00:39:36.110Z,7.09
2018-11-03T00:40:36.151Z,7.02
2018-11-03T00:41:36.124Z,7.05
2018-11-03T00:42:36.134Z,7.10
2018-11-03T00:43:36.107Z,7.16
2018-11-03T00:44:36.096Z,7.15
2018-11-03T00:45:36.075Z,7.15
2018-11-03T00:46:36.031Z,7.09
2018-11-03T00:47:36.049Z,7.10
2018-11-03T00:48:36.035Z,7.09
2018-11-03T00:49:36.016Z,7.05
2018-11-03T00:50:35.976Z,7.15
2018-11-03T00:51:35.994Z,7.06
2018-11-03T00:52:35.975Z,7.07
2018-11-03T00:53:35.984Z,7.05
2018-11-03T00:54:35.944Z,7.10
2018-11-03T00:55:35.925Z,7.03
2018-11-03T00:56:35.908Z,7.05
2018-11-03T00:57:35.969Z,7.15
2018-11-03T00:58:35.896Z,7.07
2018-11-03T00:59:35.885Z,7.07
2018-11-03T01:00:35.880Z,6.99
2018-11-03T01:01:35.858Z,7.02
2018-11-03T01:02:35.889Z,6.97
2018-11-03T01:03:35.909Z,6.98
2018-11-03T01:04:35.822Z,7.10
2018-11-03T01:05:35.825Z,7.10
2018-11-03T01:06:35.816Z,7.02
2018-11-03T01:07:35.821Z,6.97
2018-11-03T01:08:35.794Z,7.02
2018-11-03T01:09:35.814Z,7.07
2018-11-03T01:10:35.823Z,7.06
2018-11-03T01:11:35.750Z,6.99
2018-11-03T01:12:35.738Z,6.97
2018-11-03T01:13:35.771Z,6.95
2018-11-03T01:14:35.733Z,6.97
2018-11-03T01:15:35.721Z,6.95
2018-11-03T01:16:35.699Z,6.95
2018-11-03T01:17:35.683Z,6.88
2018-11-03T01:18:35.690Z,6.91
2018-11-03T01:19:35.657Z,6.80
2018-11-03T01:20:35.659Z,6.89
2018-11-03T01:21:35.645Z,6.87
2018-11-03T01:22:35.622Z,6.88
2018-11-03T01:23:35.701Z,6.85
2018-11-03T01:24:35.672Z,6.91
2018-11-03T01:25:35.599Z,6.92
2018-11-03T01:26:35.590Z,6.94
2018-11-03T01:27:35.584Z,6.92
2018-11-03T01:28:35.607Z,6.95
2018-11-03T01:29:35.565Z,6.97
2018-11-03T01:30:35.524Z,6.95
2018-11-03T01:31:35.573Z,6.95
2018-11-03T01:32:35.619Z,6.98
2018-11-03T01:33:35.506Z,6.97
2018-11-03T01:34:35.481Z,7.05
2018-11-03T01:35:35.481Z,6.94
2018-11-03T01:36:35.491Z,7.05
2018-11-03T01:37:35.499Z,7.12
2018-11-03T01:38:35.434Z,7.13
2018-11-03T01:39:35.429Z,7.02
2018-11-03T01:40:35.434Z,7.12
2018-11-03T01:41:35.408Z,7.10
2018-11-03T01:42:35.433Z,7.10
2018-11-03T01:43:35.384Z,7.07
2018-11-03T01:44:35.380Z,7.10
2018-11-03T01:45:35.380Z,7.07
2018-11-03T01:46:35.352Z,7.09
2018-11-03T01:47:35.422Z,7.10
2018-11-03T01:48:35.328Z,7.15
2018-11-03T01:49:35.315Z,7.21
2018-11-03T01:50:35.303Z,7.13
2018-11-03T01:51:35.305Z,7.07
2018-11-03T01:52:35.300Z,7.20
2018-11-03T01:53:35.257Z,7.10
2018-11-03T01:54:35.252Z,7.21
2018-11-03T01:55:35.266Z,7.15
2018-11-03T01:56:35.243Z,7.15
2018-11-03T01:57:35.232Z,7.15
2018-11-03T01:58:35.211Z,7.13
2018-11-03T01:59:35.197Z,7.10
2018-11-03T02:00:35.211Z,7.15
2018-11-03T02:01:35.179Z,7.12
2018-11-03T02:02:35.218Z,7.17
2018-11-03T02:03:35.149Z,7.21
2018-11-03T02:04:35.156Z,7.12
2018-11-03T02:05:35.177Z,7.13
2018-11-03T02:06:35.121Z,7.23
2018-11-03T02:07:35.138Z,7.15
2018-11-03T02:08:35.092Z,7.15
2018-11-03T02:09:35.088Z,7.09
2018-11-03T02:10:35.071Z,7.20
2018-11-03T02:11:35.091Z,7.13
2018-11-03T02:12:35.080Z,7.13
2018-11-03T02:13:35.140Z,7.05
2018-11-03T02:14:35.022Z,7.12
2018-11-03T02:15:35.016Z,7.12
2018-11-03T02:16:35.000Z,7.10
2018-11-03T02:17:35.043Z,7.16
2018-11-03T02:18:35.018Z,7.13
2018-11-03T02:19:34.970Z,7.13
2018-11-03T02:20:34.998Z,7.13
2018-11-03T02:21:34.953Z,7.16
2018-11-03T02:22:34.973Z,7.12
2018-11-03T02:23:34.927Z,7.15
2018-11-03T02:24:34.936Z,7.13
2018-11-03T02:25:34.960Z,7.12
2018-11-03T02:26:34.888Z,7.16
2018-11-03T02:27:34.905Z,7.13
2018-11-03T02:28:34.874Z,7.15
2018-11-03T02:29:34.856Z,7.23
2018-11-03T02:30:34.871Z,7.15
2018-11-03T02:31:34.878Z,7.10
2018-11-03T02:32:34.822Z,7.12
2018-11-03T02:33:34.837Z,7.21
2018-11-03T02:34:34.840Z,7.23
2018-11-03T02:35:34.798Z,7.15
2018-11-03T02:36:34.805Z,7.16
2018-11-03T02:37:34.773Z,7.10
2018-11-03T02:38:34.788Z,7.23
2018-11-03T02:39:34.742Z,7.12
2018-11-03T02:40:34.724Z,7.10
2018-11-03T02:41:34.754Z,7.07
2018-11-03T02:42:34.736Z,7.07
2018-11-03T02:43:34.690Z,7.07
2018-11-03T02:44:34.681Z,7.09
2018-11-03T02:45:34.702Z,7.13
2018-11-03T02:46:34.652Z,7.10
2018-11-03T02:47:34.684Z,7.12
2018-11-03T02:48:34.640Z,7.07
2018-11-03T02:49:34.631Z,7.13
2018-11-03T02:50:34.612Z,7.15
2018-11-03T02:51:34.634Z,7.15
2018-11-03T02:52:34.604Z,7.17
2018-11-03T02:53:34.605Z,7.16
2018-11-03T02:54:34.570Z,7.10
2018-11-03T02:55:34.553Z,7.17
2018-11-03T02:56:34.544Z,7.20
2018-11-03T02:57:34.613Z,7.15
2018-11-03T02:58:34.534Z,7.15
2018-11-03T02:59:34.545Z,7.13
2018-11-03T03:00:34.506Z,7.13
2018-11-03T03:01:34.482Z,7.13
2018-11-03T03:02:34.481Z,7.15
2018-11-03T03:03:34.495Z,7.15
2018-11-03T03:04:34.488Z,7.15
2018-11-03T03:05:34.480Z,7.12
2018-11-03T03:06:34.425Z,7.16
2018-11-03T03:07:34.428Z,7.15
2018-11-03T03:08:34.402Z,7.13
2018-11-03T03:09:34.399Z,7.13
2018-11-03T03:10:34.422Z,7.15
2018-11-03T03:11:34.380Z,7.12
2018-11-03T03:12:34.387Z,7.10
2018-11-03T03:13:34.346Z,7.15
2018-11-03T03:14:34.337Z,7.21
2018-11-03T03:15:34.356Z,7.15
2018-11-03T03:16:34.316Z,7.15
2018-11-03T03:17:34.357Z,7.15
2018-11-03T03:18:34.292Z,7.12
2018-11-03T03:19:34.281Z,7.13
2018-11-03T03:20:34.263Z,7.17
2018-11-03T03:21:34.264Z,7.16
2018-11-03T03:22:34.270Z,7.12
2018-11-03T03:23:34.236Z,7.13
2018-11-03T03:24:34.271Z,7.13
2018-11-03T03:25:34.270Z,7.05
2018-11-03T03:26:34.202Z,7.12
2018-11-03T03:27:34.203Z,7.10
2018-11-03T03:28:34.176Z,7.21
2018-11-03T03:29:34.232Z,7.17
2018-11-03T03:30:34.175Z,7.09
2018-11-03T03:31:34.139Z,7.06
2018-11-03T03:32:34.149Z,7.10
2018-11-03T03:33:34.133Z,7.12
2018-11-03T03:34:34.144Z,7.12
2018-11-03T03:35:34.108Z,7.10
2018-11-03T03:36:34.080Z,7.07
2018-11-03T03:37:34.100Z,7.07
2018-11-03T03:38:34.065Z,7.05
2018-11-03T03:39:34.077Z,7.07
2018-11-03T03:40:34.077Z,7.06
2018-11-03T03:41:34.029Z,7.10
2018-11-03T03:42:34.029Z,7.06
2018-11-03T03:43:34.057Z,7.07
2018-11-03T03:44:34.020Z,7.03
2018-11-03T03:45:33.986Z,7.02
2018-11-03T03:46:33.969Z,6.97
2018-11-03T03:47:33.962Z,7.05
2018-11-03T03:48:33.979Z,7.06
2018-11-03T03:49:33.993Z,6.98
2018-11-03T03:50:33.946Z,7.06
2018-11-03T03:51:33.917Z,7.07
2018-11-03T03:52:33.902Z,7.07
2018-11-03T03:53:33.909Z,7.12
2018-11-03T03:54:33.885Z,7.07
2018-11-03T03:55:33.926Z,7.12
2018-11-03T03:56:33.860Z,7.12
2018-11-03T03:57:33.896Z,7.12
2018-11-03T03:58:33.837Z,7.05
2018-11-03T03:59:33.838Z,7.07
2018-11-03T04:00:33.825Z,7.10
2018-11-03T04:01:33.798Z,7.07
2018-11-03T04:02:33.826Z,6.97
2018-11-03T04:03:33.784Z,7.13
2018-11-03T04:04:33.769Z,7.09
2018-11-03T04:05:33.805Z,7.12
2018-11-03T04:06:33.797Z,7.07
2018-11-03T04:07:33.739Z,7.10
2018-11-03T04:08:33.733Z,7.05
2018-11-03T04:09:33.741Z,7.09
2018-11-03T04:10:33.701Z,7.06
2018-11-03T04:11:33.704Z,7.07
2018-11-03T04:12:33.692Z,7.10
2018-11-03T04:13:33.696Z,7.06
2018-11-03T04:14:33.682Z,7.12
2018-11-03T04:15:33.675Z,7.05
2018-11-03T04:16:33.640Z,7.10
2018-11-03T04:17:33.648Z,7.13
2018-11-03T04:18:33.643Z,6.97
2018-11-03T04:19:33.599Z,7.06
2018-11-03T04:20:33.592Z,7.05
2018-11-03T04:21:33.635Z,7.07
2018-11-03T04:22:33.645Z,7.05
2018-11-03T04:23:33.584Z,7.10
2018-11-03T04:24:33.536Z,7.05
2018-11-03T04:25:33.529Z,7.02
2018-11-03T04:26:33.519Z,7.07
2018-11-03T04:27:33.503Z,7.02
2018-11-03T04:28:33.559Z,6.98
2018-11-03T04:29:33.507Z,6.94
2018-11-03T04:30:33.480Z,7.06
2018-11-03T04:31:33.465Z,6.94
2018-11-03T04:32:33.454Z,6.95
2018-11-03T04:33:33.458Z,7.07
2018-11-03T04:34:33.439Z,7.05
2018-11-03T04:35:33.414Z,6.98
2018-11-03T04:36:33.409Z,6.98
2018-11-03T04:37:33.413Z,6.94
2018-11-03T04:38:33.404Z,7.07
2018-11-03T04:39:33.365Z,7.10
2018-11-03T04:40:33.370Z,7.02
2018-11-03T04:41:33.343Z,6.95
2018-11-03T04:42:33.337Z,7.09
2018-11-03T04:43:33.347Z,6.95
2018-11-03T04:44:33.311Z,6.95
2018-11-03T04:45:33.323Z,6.98
2018-11-03T04:46:33.305Z,7.12
2018-11-03T04:47:33.282Z,7.06
2018-11-03T04:48:33.307Z,6.98
2018-11-03T04:49:33.260Z,6.91
2018-11-03T04:50:33.240Z,7.02
2018-11-03T04:51:33.237Z,6.98
2018-11-03T04:52:33.220Z,6.97
2018-11-03T04:53:33.263Z,7.02
2018-11-03T04:54:33.203Z,6.94
2018-11-03T04:55:33.219Z,6.97
2018-11-03T04:56:33.175Z,6.94
2018-11-03T04:57:33.189Z,6.94
2018-11-03T04:58:33.183Z,6.88
2018-11-03T04:59:33.160Z,6.91
2018-11-03T05:00:33.153Z,6.94
2018-11-03T05:01:33.141Z,6.91
2018-11-03T05:02:33.114Z,6.94
2018-11-03T05:03:33.101Z,6.85
2018-11-03T05:04:33.082Z,6.85
2018-11-03T05:05:33.092Z,6.91
2018-11-03T05:06:33.084Z,6.85
2018-11-03T05:07:33.054Z,6.88
2018-11-03T05:08:33.034Z,6.92
2018-11-03T05:09:33.054Z,6.94
2018-11-03T05:10:33.039Z,6.92
2018-11-03T05:11:33.076Z,6.91
2018-11-03T05:12:33.035Z,6.88
2018-11-03T05:13:32.989Z,6.88
2018-11-03T05:14:33.005Z,6.99
2018-11-03T05:15:32.959Z,6.89
2018-11-03T05:16:33.588Z,6.92
2018-11-03T05:17:32.966Z,6.88
2018-11-03T05:18:32.920Z,6.97
2018-11-03T05:19:32.919Z,6.95
2018-11-03T05:20:32.908Z,6.95
2018-11-03T05:21:32.923Z,6.94
2018-11-03T05:22:32.933Z,6.92
2018-11-03T05:23:32.899Z,6.97
2018-11-03T05:24:32.882Z,6.92
2018-11-03T05:25:32.843Z,6.95
2018-11-03T05:26:32.836Z,6.85
2018-11-03T05:27:32.817Z,6.97
2018-11-03T05:28:32.866Z,6.97
2018-11-03T05:29:32.809Z,6.98
2018-11-03T05:30:32.804Z,6.97
2018-11-03T05:31:32.774Z,6.97
2018-11-03T05:32:32.790Z,7.02
2018-11-03T05:33:32.763Z,6.98
2018-11-03T05:34:32.798Z,6.97
2018-11-03T05:35:32.741Z,6.95
2018-11-03T05:36:32.731Z,6.97
2018-11-03T05:37:32.707Z,6.94
2018-11-03T05:38:32.759Z,6.98
2018-11-03T05:39:32.742Z,6.89
2018-11-03T05:40:32.695Z,6.91
2018-11-03T05:41:32.685Z,6.89
2018-11-03T05:42:32.683Z,6.87
2018-11-03T05:43:32.646Z,6.94
2018-11-03T05:44:32.655Z,6.89
2018-11-03T05:45:32.613Z,6.94
2018-11-03T05:46:32.682Z,6.88
2018-11-03T05:47:32.594Z,6.91
2018-11-03T05:48:32.650Z,6.89
2018-11-03T05:49:32.579Z,6.94
2018-11-03T05:50:32.567Z,6.88
2018-11-03T05:51:32.572Z,6.91
2018-11-03T05:52:32.577Z,6.77
2018-11-03T05:53:32.546Z,6.87
2018-11-03T05:54:32.522Z,6.77
2018-11-03T05:55:32.506Z,6.76
2018-11-03T05:56:32.509Z,6.81
2018-11-03T05:57:32.541Z,6.81
2018-11-03T05:58:32.492Z,6.74
2018-11-03T05:59:32.461Z,6.73
2018-11-03T06:00:32.483Z,6.76
2018-11-03T06:01:32.436Z,6.80
2018-11-03T06:02:32.444Z,6.71
2018-11-03T06:03:32.413Z,6.80
2018-11-03T06:04:32.462Z,6.70
2018-11-03T06:05:32.390Z,6.70
2018-11-03T06:06:32.385Z,6.69
2018-11-03T06:07:32.372Z,6.70
2018-11-03T06:08:32.394Z,6.77
2018-11-03T06:09:32.370Z,6.74
2018-11-03T06:10:32.344Z,6.73
2018-11-03T06:11:32.321Z,6.74
2018-11-03T06:12:33.166Z,6.77
2018-11-03T06:13:32.315Z,6.74
2018-11-03T06:14:32.333Z,6.76
2018-11-03T06:15:32.379Z,6.70
2018-11-03T06:16:32.256Z,6.80
2018-11-03T06:17:32.258Z,6.74
2018-11-03T06:18:32.240Z,6.67
2018-11-03T06:19:32.266Z,6.77
2018-11-03T06:20:32.255Z,6.70
2018-11-03T06:21:32.233Z,6.79
2018-11-03T06:22:32.309Z,6.73
2018-11-03T06:23:32.213Z,6.79
2018-11-03T06:24:32.235Z,6.77
2018-11-03T06:25:32.163Z,6.67
2018-11-03T06:26:32.184Z,6.74
2018-11-03T06:27:32.200Z,6.77
2018-11-03T06:28:32.171Z,6.74
2018-11-03T06:29:32.135Z,6.69
2018-11-03T06:30:32.167Z,6.80
2018-11-03T06:31:32.110Z,6.71
2018-11-03T06:32:32.083Z,6.79
2018-11-03T06:33:32.108Z,6.80
2018-11-03T06:34:32.062Z,6.84
2018-11-03T06:35:32.053Z,6.84
2018-11-03T06:36:32.059Z,6.84
2018-11-03T06:37:32.032Z,6.77
2018-11-03T06:38:32.057Z,6.76
2018-11-03T06:39:32.000Z,6.84
2018-11-03T06:40:31.991Z,6.74
2018-11-03T06:41:32.064Z,6.73
2018-11-03T06:42:31.982Z,6.84
2018-11-03T06:43:32.008Z,6.84
2018-11-03T06:44:31.962Z,6.77
2018-11-03T06:45:31.940Z,6.80
2018-11-03T06:46:31.944Z,6.77
2018-11-03T06:47:31.988Z,6.84
2018-11-03T06:48:31.944Z,6.74
2018-11-03T06:49:31.922Z,6.79
2018-11-03T06:50:31.899Z,6.80
2018-11-03T06:51:31.873Z,6.77
2018-11-03T06:52:31.864Z,6.79
2018-11-03T06:53:31.868Z,6.81
2018-11-03T06:54:31.837Z,6.79
2018-11-03T06:55:31.823Z,6.87
2018-11-03T06:56:31.845Z,6.80
2018-11-03T06:57:31.798Z,6.87
2018-11-03T06:58:31.829Z,6.76
2018-11-03T06:59:31.890Z,6.84
2018-11-03T07:00:31.777Z,6.84
2018-11-03T07:01:31.758Z,6.85
2018-11-03T07:02:31.747Z,6.81
2018-11-03T07:03:31.765Z,6.84
2018-11-03T07:04:31.733Z,6.84
2018-11-03T07:05:31.725Z,6.87
2018-11-03T07:06:31.736Z,6.81
2018-11-03T07:07:31.721Z,6.87
2018-11-03T07:08:31.669Z,6.84
2018-11-03T07:09:31.669Z,6.89
2018-11-03T07:10:31.656Z,6.87
2018-11-03T07:11:31.744Z,6.76
2018-11-03T07:12:31.823Z,6.91
2018-11-03T07:13:31.637Z,6.89
2018-11-03T07:14:31.645Z,6.92
2018-11-03T07:15:31.596Z,6.88
2018-11-03T07:16:31.638Z,6.95
2018-11-03T07:17:31.560Z,6.91
2018-11-03T07:18:31.610Z,6.91
2018-11-03T07:19:31.607Z,6.91
2018-11-03T07:20:31.568Z,6.89
2018-11-03T07:21:31.569Z,6.94
2018-11-03T07:22:31.507Z,6.99
2018-11-03T07:23:31.559Z,7.03
2018-11-03T07:24:31.523Z,6.94
2018-11-03T07:25:31.483Z,6.99
2018-11-03T07:26:31.498Z,7.03
2018-11-03T07:27:31.463Z,7.03
2018-11-03T07:28:31.484Z,6.99
2018-11-03T07:29:31.489Z,7.02
2018-11-03T07:30:31.424Z,7.03
2018-11-03T07:31:31.412Z,6.97
2018-11-03T07:32:31.455Z,6.94
2018-11-03T07:33:31.469Z,7.03
2018-11-03T07:34:31.392Z,6.95
2018-11-03T07:35:31.357Z,6.99
2018-11-03T07:36:31.390Z,6.98
2018-11-03T07:37:31.335Z,6.95
2018-11-03T07:38:31.329Z,7.13
2018-11-03T07:39:31.371Z,7.05
2018-11-03T07:40:31.330Z,7.05
2018-11-03T07:41:31.383Z,7.10
2018-11-03T07:42:31.353Z,7.05
2018-11-03T07:43:31.310Z,7.10
2018-11-03T07:44:31.261Z,7.15
2018-11-03T07:45:31.246Z,7.16
2018-11-03T07:46:31.319Z,7.10
2018-11-03T07:47:31.229Z,7.13
2018-11-03T07:48:31.290Z,7.15
2018-11-03T07:49:31.388Z,7.15
2018-11-03T07:50:31.192Z,7.16
2018-11-03T07:51:31.264Z,7.28
2018-11-03T07:52:31.174Z,7.35
2018-11-03T07:53:31.182Z,7.37
2018-11-03T07:54:31.209Z,7.43
2018-11-03T07:55:31.146Z,7.43
2018-11-03T07:56:31.169Z,7.43
2018-11-03T07:57:31.124Z,7.35
2018-11-03T07:58:31.129Z,7.50
2018-11-03T07:59:31.108Z,7.49
2018-11-03T08:00:31.170Z,7.52
2018-11-03T08:01:31.112Z,7.49
2018-11-03T08:02:31.054Z,7.49
2018-11-03T08:03:31.060Z,7.49
2018-11-03T08:04:31.041Z,7.45
2018-11-03T08:05:31.058Z,7.43
2018-11-03T08:06:31.049Z,7.39
2018-11-03T08:07:31.034Z,7.42
2018-11-03T08:08:30.983Z,7.49
2018-11-03T08:09:30.987Z,7.43
2018-11-03T08:10:30.963Z,7.42
2018-11-03T08:11:30.961Z,7.37
2018-11-03T08:12:30.986Z,7.45
2018-11-03T08:13:30.925Z,7.37
2018-11-03T08:14:30.965Z,7.40
2018-11-03T08:15:30.912Z,7.40
2018-11-03T08:16:30.897Z,7.43
2018-11-03T08:17:30.916Z,7.42
2018-11-03T08:18:30.885Z,7.40
2018-11-03T08:19:30.881Z,7.49
2018-11-03T08:20:30.870Z,7.53
2018-11-03T08:21:30.828Z,7.52
2018-11-03T08:22:30.873Z,7.53
2018-11-03T08:23:30.809Z,7.61
2018-11-03T08:24:30.856Z,7.64
2018-11-03T08:25:30.795Z,7.64
2018-11-03T08:26:30.780Z,7.58
2018-11-03T08:27:30.825Z,7.60
2018-11-03T08:28:30.765Z,7.49
2018-11-03T08:29:30.756Z,7.52
2018-11-03T08:30:30.730Z,7.49
2018-11-03T08:31:30.797Z,7.55
2018-11-03T08:32:30.756Z,7.61
2018-11-03T08:33:30.710Z,7.60
2018-11-03T08:34:30.679Z,7.58
2018-11-03T08:35:30.682Z,7.63
2018-11-03T08:36:30.685Z,7.60
2018-11-03T08:37:30.667Z,7.64
2018-11-03T08:38:30.641Z,7.68
2018-11-03T08:39:30.666Z,7.57
2018-11-03T08:40:30.617Z,7.63
2018-11-03T08:41:30.662Z,7.60
2018-11-03T08:42:30.593Z,7.63
2018-11-03T08:43:45.200Z,7.67
2018-11-03T08:44:30.615Z,7.79
2018-11-03T08:45:30.567Z,7.85
2018-11-03T08:46:30.568Z,7.79
2018-11-03T08:47:30.537Z,7.83
2018-11-03T08:48:30.619Z,7.93
2018-11-03T08:49:30.523Z,7.92
2018-11-03T08:50:30.503Z,8.00
2018-11-03T08:51:30.496Z,7.95
2018-11-03T08:52:30.495Z,8.01
2018-11-03T08:53:30.505Z,8.07
2018-11-03T08:54:30.464Z,8.12
2018-11-03T08:55:30.483Z,8.16
2018-11-03T08:56:33.141Z,8.16
2018-11-03T08:57:30.477Z,8.15
2018-11-03T08:58:30.436Z,8.25
2018-11-03T08:59:30.495Z,8.18
2018-11-03T09:00:30.414Z,8.25
2018-11-03T09:01:30.381Z,8.19
2018-11-03T09:02:30.407Z,8.29
2018-11-03T09:03:30.368Z,8.22
2018-11-03T09:04:30.348Z,8.29
2018-11-03T09:05:30.340Z,8.19
2018-11-03T09:06:30.369Z,8.26
2018-11-03T09:07:30.346Z,8.23
2018-11-03T09:08:30.302Z,8.37
2018-11-03T09:09:30.319Z,8.33
2018-11-03T09:10:30.281Z,8.40
2018-11-03T09:11:30.272Z,8.44
2018-11-03T09:12:30.368Z,8.47
2018-11-03T09:13:30.241Z,8.45
2018-11-03T09:14:30.300Z,8.45
2018-11-03T09:15:30.224Z,8.43
2018-11-03T09:16:30.212Z,8.34
2018-11-03T09:17:30.227Z,8.38
2018-11-03T09:18:30.186Z,8.22
2018-11-03T09:19:30.217Z,8.28
2018-11-03T09:20:30.180Z,8.30
2018-11-03T09:21:30.162Z,8.34
2018-11-03T09:22:30.245Z,8.36
2018-11-03T09:23:30.134Z,8.40
2018-11-03T09:24:30.141Z,8.38
2018-11-03T09:25:30.141Z,8.37
2018-11-03T09:26:30.096Z,8.38
2018-11-03T09:27:30.085Z,8.45
2018-11-03T09:28:30.077Z,8.52
2018-11-03T09:29:30.092Z,8.50
2018-11-03T09:30:30.054Z,8.52
2018-11-03T09:31:30.048Z,8.50
2018-11-03T09:32:30.057Z,8.58
2018-11-03T09:33:30.018Z,8.65
2018-11-03T09:34:30.063Z,8.65
2018-11-03T09:35:29.990Z,8.71
2018-11-03T09:36:30.021Z,8.71
2018-11-03T09:37:29.996Z,8.79
2018-11-03T09:38:30.087Z,8.86
2018-11-03T09:39:29.941Z,9.01
2018-11-03T09:40:29.928Z,8.99
2018-11-03T09:41:29.915Z,9.05
2018-11-03T09:42:29.970Z,9.02
2018-11-03T09:43:30.043Z,9.04
2018-11-03T09:44:29.886Z,9.13
2018-11-03T09:45:29.873Z,9.17
2018-11-03T09:46:29.872Z,9.18
2018-11-03T09:47:29.874Z,9.24
2018-11-03T09:48:29.844Z,9.21
2018-11-03T09:49:29.824Z,9.31
2018-11-03T09:50:33.261Z,9.39
2018-11-03T09:51:29.834Z,9.40
2018-11-03T09:52:29.806Z,9.48
2018-11-03T09:53:29.783Z,9.50
2018-11-03T09:54:30.594Z,9.47
2018-11-03T09:55:29.809Z,9.58
2018-11-03T09:56:29.773Z,9.66
2018-11-03T09:57:29.790Z,9.65
2018-11-03T09:58:29.737Z,9.60
2018-11-03T09:59:29.738Z,9.64
2018-11-03T10:00:29.755Z,9.64
2018-11-03T10:01:29.690Z,9.61
2018-11-03T10:02:29.675Z,9.58
2018-11-03T10:03:29.669Z,9.57
2018-11-03T10:04:29.673Z,9.57
2018-11-03T10:05:29.737Z,9.50
2018-11-03T10:06:29.652Z,9.48
2018-11-03T10:07:29.652Z,9.46
2018-11-03T10:08:29.627Z,9.54
2018-11-03T10:09:29.642Z,9.50
2018-11-03T10:10:29.601Z,9.46
2018-11-03T10:11:29.584Z,9.48
2018-11-03T10:12:29.593Z,9.50
2018-11-03T10:13:29.562Z,9.50
2018-11-03T10:14:29.574Z,9.50
2018-11-03T10:15:29.587Z,9.64
2018-11-03T10:16:30.103Z,9.60
2018-11-03T10:17:29.515Z,9.57
2018-11-03T10:18:29.519Z,9.61
2018-11-03T10:19:29.520Z,9.54
2018-11-03T10:20:29.515Z,9.50
2018-11-03T10:21:29.470Z,9.46
2018-11-03T10:22:29.554Z,9.48
2018-11-03T10:23:29.452Z,9.33
2018-11-03T10:24:29.491Z,9.36
2018-11-03T10:25:29.427Z,9.36
2018-11-03T10:26:29.436Z,9.32
2018-11-03T10:27:29.409Z,9.31
2018-11-03T10:28:29.427Z,9.35
2018-11-03T10:29:30.095Z,9.24
2018-11-03T10:30:29.399Z,9.24
2018-11-03T10:31:29.359Z,9.26
2018-11-03T10:32:29.377Z,9.23
2018-11-03T10:33:29.349Z,9.23
2018-11-03T10:34:29.327Z,9.26
2018-11-03T10:35:29.306Z,9.18
2018-11-03T10:36:29.372Z,9.36
2018-11-03T10:37:29.329Z,9.32
2018-11-03T10:38:29.366Z,9.38
2018-11-03T10:39:29.304Z,9.35
2018-11-03T10:40:30.103Z,9.35
2018-11-03T10:41:29.241Z,9.21
2018-11-03T10:42:29.303Z,9.31
2018-11-03T10:43:29.222Z,9.32
2018-11-03T10:44:29.213Z,9.23
2018-11-03T10:45:29.208Z,9.21
2018-11-03T10:46:29.339Z,9.24
2018-11-03T10:47:29.206Z,9.28
2018-11-03T10:48:29.198Z,9.35
2018-11-03T10:49:29.203Z,9.39
2018-11-03T10:50:29.142Z,9.39
2018-11-03T10:51:29.135Z,9.39
2018-11-03T10:52:29.125Z,9.47
2018-11-03T10:53:29.143Z,9.50
2018-11-03T10:54:29.098Z,9.56
2018-11-03T10:55:29.091Z,9.53
2018-11-03T10:56:29.070Z,9.60
2018-11-03T10:57:29.064Z,9.61
2018-11-03T10:58:29.115Z,9.54
2018-11-03T10:59:29.083Z,9.50
2018-11-03T11:00:29.039Z,9.64
2018-11-03T11:01:29.032Z,9.50
2018-11-03T11:02:29.011Z,9.47
2018-11-03T11:03:29.039Z,9.50
2018-11-03T11:04:29.021Z,9.46
2018-11-03T11:05:29.011Z,9.46
2018-11-03T11:06:28.965Z,9.40
2018-11-03T11:07:28.949Z,9.43
2018-11-03T11:08:28.934Z,9.54
2018-11-03T11:09:28.953Z,9.53
2018-11-03T11:10:28.929Z,9.50
2018-11-03T11:11:28.914Z,9.57
2018-11-03T11:12:28.912Z,9.57
2018-11-03T11:13:28.883Z,9.68
2018-11-03T11:14:29.003Z,9.61
2018-11-03T11:15:28.862Z,9.65
2018-11-03T11:16:28.948Z,9.64
2018-11-03T11:17:28.852Z,9.61
2018-11-03T11:18:31.649Z,9.72
2018-11-03T11:19:28.865Z,9.78
2018-11-03T11:20:28.843Z,9.75
2018-11-03T11:21:28.833Z,9.75
2018-11-03T11:22:28.786Z,9.75
2018-11-03T11:23:28.817Z,9.69
2018-11-03T11:24:28.814Z,9.78
2018-11-03T11:25:28.938Z,9.74
2018-11-03T11:26:28.734Z,9.72
2018-11-03T11:27:28.744Z,9.71
2018-11-03T11:28:28.742Z,9.72
2018-11-03T11:29:28.736Z,9.78
2018-11-03T11:30:28.692Z,9.91
2018-11-03T11:31:28.823Z,9.94
2018-11-03T11:32:28.723Z,9.99
2018-11-03T11:33:28.698Z,10.04
2018-11-03T11:34:28.665Z,10.12
2018-11-03T11:35:28.680Z,10.14
2018-11-03T11:36:28.633Z,10.12
2018-11-03T11:37:28.728Z,10.15
2018-11-03T11:38:28.663Z,10.14
2018-11-03T11:39:28.582Z,10.11
2018-11-03T11:40:28.647Z,10.05
2018-11-03T11:41:28.583Z,10.01
2018-11-03T11:42:28.595Z,10.02
2018-11-03T11:43:28.552Z,9.93
2018-11-03T11:44:28.538Z,9.96
2018-11-03T11:45:28.565Z,9.86
2018-11-03T11:46:28.524Z,9.86
2018-11-03T11:47:28.524Z,9.93
2018-11-03T11:48:28.642Z,9.84
2018-11-03T11:49:28.486Z,9.83
2018-11-03T11:50:28.517Z,9.87
2018-11-03T11:51:28.476Z,9.86
2018-11-03T11:52:28.455Z,9.86
2018-11-03T11:53:28.470Z,9.84
2018-11-03T11:54:28.457Z,9.75
2018-11-03T11:55:28.440Z,9.81
2018-11-03T11:56:28.469Z,9.79
2018-11-03T11:57:28.397Z,9.76
2018-11-03T11:58:28.406Z,9.75
2018-11-03T11:59:28.366Z,9.79
2018-11-03T12:00:28.436Z,9.74
2018-11-03T12:01:28.346Z,9.75
2018-11-03T12:02:28.450Z,9.72
2018-11-03T12:03:28.334Z,9.79
2018-11-03T12:04:28.361Z,9.65
2018-11-03T12:05:28.331Z,9.75
2018-11-03T12:06:28.309Z,9.72
2018-11-03T12:07:28.279Z,9.79
2018-11-03T12:08:28.267Z,9.76
2018-11-03T12:09:28.273Z,9.83
2018-11-03T12:10:28.315Z,9.81
2018-11-03T12:11:28.231Z,9.86
2018-11-03T12:12:28.241Z,9.90
2018-11-03T12:13:28.214Z,9.86
2018-11-03T12:14:28.233Z,9.81
2018-11-03T12:15:28.210Z,9.84
2018-11-03T12:16:28.181Z,9.91
2018-11-03T12:17:28.181Z,9.96
2018-11-03T12:18:28.152Z,9.96
2018-11-03T12:19:28.148Z,9.90
2018-11-03T12:20:28.188Z,9.83
2018-11-03T12:21:28.140Z,9.83
2018-11-03T12:22:28.112Z,9.91
2018-11-03T12:23:28.109Z,9.86
2018-11-03T12:24:28.097Z,9.91
2018-11-03T12:25:28.161Z,9.86
2018-11-03T12:26:28.103Z,9.93
2018-11-03T12:27:28.057Z,9.87
2018-11-03T12:28:28.071Z,9.84
2018-11-03T12:29:28.047Z,9.86
2018-11-03T12:30:28.083Z,9.87
2018-11-03T12:31:28.077Z,9.87
2018-11-03T12:32:28.054Z,9.91
2018-11-03T12:33:28.009Z,9.99
2018-11-03T12:34:27.988Z,9.97
2018-11-03T12:35:28.029Z,10.02
2018-11-03T12:36:28.005Z,9.99
2018-11-03T12:37:27.966Z,9.93
2018-11-03T12:38:27.955Z,9.84
2018-11-03T12:39:27.935Z,9.78
2018-11-03T12:40:27.915Z,9.78
2018-11-03T12:41:28.131Z,9.79
2018-11-03T12:42:27.890Z,9.84
2018-11-03T12:43:27.900Z,9.86
2018-11-03T12:44:27.873Z,9.78
2018-11-03T12:45:27.916Z,9.86
2018-11-03T12:46:27.851Z,9.89
2018-11-03T12:47:27.846Z,9.83
2018-11-03T12:48:27.917Z,9.81
2018-11-03T12:49:27.898Z,9.84
2018-11-03T12:50:27.811Z,9.86
2018-11-03T12:51:27.812Z,9.89
2018-11-03T12:52:27.841Z,9.89
2018-11-03T12:53:27.780Z,9.86
2018-11-03T12:54:27.762Z,9.84
2018-11-03T12:55:27.785Z,9.84
2018-11-03T12:56:27.741Z,9.87
2018-11-03T12:57:27.763Z,9.76
2018-11-03T12:58:27.756Z,9.74
2018-11-03T12:59:27.786Z,9.75
2018-11-03T13:00:27.709Z,9.75
2018-11-03T13:01:27.811Z,9.69
2018-11-03T13:02:27.749Z,9.71
2018-11-03T13:03:27.933Z,9.66
2018-11-03T13:04:27.777Z,9.66
2018-11-03T13:05:27.644Z,9.64
2018-11-03T13:06:27.639Z,9.61
2018-11-03T13:07:27.800Z,9.65
2018-11-03T13:08:27.675Z,9.61
2018-11-03T13:09:27.818Z,9.61
2018-11-03T13:10:27.622Z,9.61
2018-11-03T13:11:27.629Z,9.65
2018-11-03T13:12:27.633Z,9.69
2018-11-03T13:13:27.645Z,9.74
2018-11-03T13:14:27.674Z,9.78
2018-11-03T13:15:27.587Z,9.76
2018-11-03T13:16:27.567Z,9.74
2018-11-03T13:17:27.574Z,9.69
2018-11-03T13:18:27.494Z,9.65